Daniel Ciechański    
ImięDaniel
NazwiskoCiechański
Kraj Polska
Data urodzenia26 lutego 1995 (27 lat)
Miejsce urodzenia Warszawa
Wzrost / waga182 cm / 74 kg
Obecny klub
Fot: KTS WeszłoPozycjanapastnik

Występy:  2013/14  2014/15  2015/16  2016/17  2017/18  2018/19 

Kariera

Sezon 2016/17

data rozgrywki gospodarze wynik goście nr grał kartki akcje
2016-07-31 17:00II liga, Kolejka 1 Gryf Wejherowo 2-1 Błękitni Stargard Szczeciński 141-6620 
2016-08-05 17:30II liga, Kolejka 2 Olimpia Zambrów 1-3 Gryf Wejherowo 141-68
2016-08-13 17:00II liga, Kolejka 3 Gryf Wejherowo 0-1 Kotwica Kołobrzeg 141-59ŻK
2016-08-20 17:00II liga, Kolejka 4 Raków Częstochowa 4-1 Gryf Wejherowo 141-55
2016-08-24 18:00II liga, Kolejka 5 Gryf Wejherowo 4-0 Polonia Bytom 1478-90
2016-08-27 17:00II liga, Kolejka 6 Odra Opole 2-1 Gryf Wejherowo 1464-90
2016-09-03 17:00II liga, Kolejka 7 Gryf Wejherowo 0-0 Polonia Warszawa 1476-90
2016-09-10 17:00II liga, Kolejka 8 Olimpia Elbląg 0-0 Gryf Wejherowo 141-61
2016-09-17 16:00II liga, Kolejka 9 Gryf Wejherowo 2-3 Warta Poznań 141-9089 
2016-09-24 15:00II liga, Kolejka 10 GKS Bełchatów 2-3 Gryf Wejherowo 141-8155 
2016-10-01 16:00II liga, Kolejka 11 Gryf Wejherowo 0-1 Stal Stalowa Wola 141-90
2016-10-08 16:00II liga, Kolejka 12 Gryf Wejherowo 2-1 Legionovia Legionowo 141-8764 
2016-10-14 18:00II liga, Kolejka 13 ROW 1964 Rybnik 2-0 Gryf Wejherowo 141-80ŻK
2016-10-23 13:00II liga, Kolejka 14 Gryf Wejherowo 2-2 Siarka Tarnobrzeg 1460-90
2016-10-30 17:00II liga, Kolejka 15 Radomiak Radom 3-0 Gryf Wejherowo 141-72
2016-11-06 13:00II liga, Kolejka 16 Gryf Wejherowo 0-2 Puszcza Niepołomice 141-90
2016-11-12 13:00II liga, Kolejka 17 Rozwój Katowice 3-1 Gryf Wejherowo 141-89
2016-11-19 13:00II liga, Kolejka 18 Błękitni Stargard Szczeciński 6-1 Gryf Wejherowo 141-90
2016-11-26 13:00II liga, Kolejka 19 Gryf Wejherowo 1-1 Olimpia Zambrów 1481-90
2017-03-11 17:00II liga, Kolejka 21 GKS Bełchatów 0-1 Polonia Bytom 846-90
2017-04-01 16:00II liga, Kolejka 24 Olimpia Elbląg 1-2 GKS Bełchatów 81-63ŻK
2017-04-08 17:00II liga, Kolejka 25 GKS Bełchatów 1-0 Warta Poznań 81-56
2017-04-15 16:00II liga, Kolejka 26 Stal Stalowa Wola 0-0 GKS Bełchatów 885-90
2017-04-22 15:00II liga, Kolejka 27 Gryf Wejherowo 4-1 GKS Bełchatów 846-90
2017-05-06 19:00II liga, Kolejka 29 ROW 1964 Rybnik 1-0 GKS Bełchatów 881-90
2017-05-13 17:00II liga, Kolejka 30 GKS Bełchatów 3-0 Siarka Tarnobrzeg 862-90
2017-05-17 18:30II liga, Kolejka 31 Radomiak Radom 4-1 GKS Bełchatów 81-45
2017-05-27 15:00II liga, Kolejka 33 Rozwój Katowice 0-2 GKS Bełchatów 81-87
2017-06-03 17:00II liga, Kolejka 34 GKS Bełchatów 0-2 Błękitni Stargard Szczeciński 81-49

drużyna rozgr. występy w "11" pełne rez. czas gry   karne sam. ŻK CK 
Gryf WejherowoII liga191445117450 (0 + 0)020
Gryf WejherowoRAZEM191445117450 (0 + 0)020
GKS BełchatówII liga1050543500 (0 + 0)010
GKS BełchatówRAZEM1050543500 (0 + 0)010
RAZEM2919410160950 (0 + 0)030